Terminal Aerodrome Forecast
Issued by NWS

Home | Current Version | Previous Version | Text Only | Print | Product List | Glossary On
Versions: 1 2 3 4 5 6 7 8 9 10 11 12 13 14 15 16 17 18 19 20 21 22 23 24 25
000
FTUS41 KBUF 012300 RRA
TAFIAG
TAF
KIAG 012341Z 0200/0224 15007KT P6SM FEW250
     FM020400 14004KT P6SM BKN090
     FM021100 18010KT P6SM SCT140
     FM022100 20017G25KT P6SM VCSH OVC060
     FM022300 21019G30KT 6SM -SHRA OVC045=

USA.gov is the U.S. government's official web portal to all federal, state and local government web resources and services.